Time;durP1;ratioP1;P1;durP2;ratioP2;P2;SDS_P1;SDS_P2;PMS_P1;PMS_P2;Temp;Humidity;BMP_temperature;BMP_pressure;BME280_temperature;BME280_humidity;BME280_pressure;Samples;Min_cycle;Max_cycle;Signal;HPM_P1;HPM_P2
2022/02/04 00:22:19;;;;;;;16.75;13.68;;;8.50;99.90;;;;;;5089360;28;20236;-67
2022/02/04 00:24:41;;;;;;;16.05;13.55;;;8.50;99.90;;;;;;5088895;28;20576;-67
2022/02/04 00:27:13;;;;;;;15.60;12.50;;;8.50;99.90;;;;;;5089401;28;20268;-67
2022/02/04 00:29:48;;;;;;;15.38;12.65;;;8.50;99.90;;;;;;5088776;28;20213;-67
2022/02/04 00:32:19;;;;;;;13.32;11.90;;;8.50;99.90;;;;;;5089089;28;20263;-68
2022/02/04 00:34:53;;;;;;;15.38;12.15;;;8.50;99.90;;;;;;5088037;28;20222;-68
2022/02/04 00:37:30;;;;;;;14.90;12.10;;;8.60;99.90;;;;;;5089549;28;20293;-68
2022/02/04 00:40:06;;;;;;;15.07;11.85;;;8.60;99.90;;;;;;5089327;28;20201;-68
2022/02/04 00:42:33;;;;;;;14.70;11.27;;;8.60;99.90;;;;;;5089292;28;20284;-68
2022/02/04 00:45:14;;;;;;;12.43;11.10;;;8.60;99.90;;;;;;5088770;28;20222;-68
2022/02/04 00:47:47;;;;;;;15.13;12.43;;;8.60;99.90;;;;;;5089005;28;20222;-67
2022/02/04 00:50:24;;;;;;;12.32;11.02;;;8.50;99.90;;;;;;5088868;28;20222;-67
2022/02/04 00:53:04;;;;;;;12.77;11.02;;;8.60;99.90;;;;;;5088661;28;20255;-68
2022/02/04 00:55:39;;;;;;;13.20;10.73;;;8.60;99.90;;;;;;5088512;28;20237;-67
2022/02/04 01:13:09;;;;;;;12.43;10.10;;;8.30;99.90;;;;;;5075054;28;20713;-67
2022/02/04 01:26:03;;;;;;;12.35;9.98;;;8.50;99.90;;;;;;5074960;28;20264;-67
2022/02/04 01:28:30;;;;;;;8.60;7.70;;;8.60;99.90;;;;;;5074541;28;20219;-67
2022/02/04 01:30:57;;;;;;;9.57;7.70;;;8.60;99.90;;;;;;5074563;28;20207;-67
2022/02/04 01:33:24;;;;;;;8.75;7.85;;;8.50;99.90;;;;;;5074590;28;20207;-66
2022/02/04 01:35:53;;;;;;;9.18;8.23;;;8.40;99.90;;;;;;5074781;28;20570;-67
2022/02/04 01:38:20;;;;;;;9.38;8.10;;;8.40;99.90;;;;;;5074605;28;20199;-67
2022/02/04 01:40:49;;;;;;;9.35;7.70;;;8.40;99.90;;;;;;5074722;28;20199;-67
2022/02/04 01:43:21;;;;;;;9.18;7.55;;;8.40;99.90;;;;;;5074584;28;20240;-67
2022/02/04 01:45:48;;;;;;;7.97;7.13;;;8.60;99.90;;;;;;5074490;28;20313;-67
2022/02/04 01:48:15;;;;;;;10.45;8.52;;;8.60;99.90;;;;;;5074112;28;20318;-67
2022/02/04 01:50:42;;;;;;;8.60;7.68;;;8.50;99.90;;;;;;5074344;28;20696;-69
2022/02/04 01:53:09;;;;;;;7.90;6.70;;;8.60;99.90;;;;;;5073983;28;20297;-67
2022/02/04 01:55:35;;;;;;;8.65;7.50;;;8.50;99.90;;;;;;5074029;28;20222;-67
2022/02/04 01:58:04;;;;;;;7.93;6.80;;;8.50;99.90;;;;;;5073976;28;20722;-67
2022/02/04 02:00:30;;;;;;;9.85;7.80;;;8.50;99.90;;;;;;5073783;28;20290;-68
2022/02/04 02:02:57;;;;;;;8.25;7.18;;;8.50;99.90;;;;;;5074025;28;20301;-70
2022/02/04 02:05:24;;;;;;;7.15;6.43;;;8.50;99.90;;;;;;5073827;28;20317;-70
2022/02/04 02:07:51;;;;;;;7.63;6.80;;;8.50;99.90;;;;;;5074196;28;20566;-68
2022/02/04 02:10:20;;;;;;;7.78;6.95;;;8.50;99.90;;;;;;5072677;28;20629;-70
2022/02/04 02:12:57;;;;;;;8.73;7.40;;;8.60;99.90;;;;;;5072765;28;20205;-68
2022/02/04 02:15:31;;;;;;;8.65;7.13;;;8.50;99.90;;;;;;5073585;28;20226;-68
2022/02/04 02:43:00;;;;;;;7.45;6.65;;;8.60;99.90;;;;;;5070119;28;20205;-66
2022/02/04 02:45:46;;;;;;;9.18;6.97;;;8.60;99.90;;;;;;5072987;28;20222;-66
2022/02/04 02:48:31;;;;;;;7.50;6.80;;;8.70;99.90;;;;;;5072659;28;20636;-66
2022/02/04 02:54:06;;;;;;;8.52;6.88;;;8.70;99.90;;;;;;5012581;28;20193;-68
2022/02/04 02:59:21;;;;;;;8.57;7.40;;;8.80;99.90;;;;;;5074074;28;20193;-68
2022/02/04 03:01:50;;;;;;;8.32;7.53;;;8.80;99.90;;;;;;5073973;28;20292;-68
2022/02/04 03:04:17;;;;;;;9.32;7.75;;;8.80;99.90;;;;;;5074065;28;20280;-68
2022/02/04 03:06:46;;;;;;;8.95;8.05;;;8.90;99.90;;;;;;5074017;28;20206;-68
2022/02/04 03:09:15;;;;;;;9.45;7.65;;;8.90;99.90;;;;;;5073899;28;20226;-68
2022/02/04 03:11:43;;;;;;;8.85;7.95;;;8.80;99.90;;;;;;5073846;28;20293;-68
2022/02/04 03:14:11;;;;;;;9.40;8.40;;;8.90;99.90;;;;;;5073772;28;20210;-68
2022/02/04 03:16:38;;;;;;;9.32;7.82;;;8.90;99.90;;;;;;5074177;28;20206;-68
2022/02/04 03:19:07;;;;;;;7.70;6.90;;;8.90;99.90;;;;;;5074121;28;20293;-68
2022/02/04 03:21:38;;;;;;;9.00;7.65;;;8.80;99.90;;;;;;5073556;28;20209;-68
2022/02/04 03:24:08;;;;;;;8.68;7.45;;;8.80;99.90;;;;;;5074231;28;20206;-68
2022/02/04 03:26:45;;;;;;;9.10;7.38;;;8.70;99.90;;;;;;5074101;28;20596;-68
2022/02/04 03:29:15;;;;;;;9.15;8.20;;;8.70;99.90;;;;;;5073873;28;20747;-68
2022/02/04 03:31:47;;;;;;;8.27;7.20;;;8.70;99.90;;;;;;5073346;28;20714;-68
2022/02/04 03:34:14;;;;;;;8.80;7.80;;;8.70;99.90;;;;;;5073712;28;20207;-68
2022/02/04 03:36:41;;;;;;;7.85;7.05;;;8.60;99.90;;;;;;5073788;28;20293;-68
2022/02/04 03:39:08;;;;;;;8.40;7.38;;;8.70;99.90;;;;;;5073453;28;20205;-68
2022/02/04 03:41:34;;;;;;;9.30;8.02;;;8.60;99.90;;;;;;5073471;28;20206;-68
2022/02/04 03:44:01;;;;;;;8.60;7.70;;;8.60;99.90;;;;;;5073453;28;20207;-68
2022/02/04 03:46:30;;;;;;;9.50;8.50;;;8.60;99.90;;;;;;5073388;28;20669;-68
2022/02/04 03:48:56;;;;;;;10.43;7.75;;;8.60;99.90;;;;;;5073447;28;20312;-68
2022/02/04 03:51:23;;;;;;;9.40;7.82;;;8.60;99.90;;;;;;5073304;28;20310;-68
2022/02/04 03:53:50;;;;;;;9.20;7.55;;;8.60;99.90;;;;;;5073486;28;20207;-68
2022/02/04 03:56:18;;;;;;;8.98;7.95;;;8.60;99.90;;;;;;5073123;28;20309;-68
2022/02/04 03:58:44;;;;;;;11.38;8.80;;;8.60;99.90;;;;;;5073408;28;20199;-68
2022/02/04 04:01:11;;;;;;;13.18;9.27;;;8.60;99.90;;;;;;5073011;28;20682;-68
2022/02/04 04:03:40;;;;;;;9.32;8.02;;;8.60;99.90;;;;;;5073396;28;20203;-68
2022/02/04 04:06:07;;;;;;;8.80;7.90;;;8.50;99.90;;;;;;5073041;28;20226;-68
2022/02/04 04:08:34;;;;;;;10.27;8.23;;;8.50;99.90;;;;;;5073258;28;20219;-66
2022/02/04 04:11:01;;;;;;;9.93;8.70;;;8.50;99.90;;;;;;5072885;28;20747;-65
2022/02/04 04:13:28;;;;;;;9.45;7.75;;;8.50;99.90;;;;;;5073197;28;20289;-66
2022/02/04 04:15:55;;;;;;;9.52;8.07;;;8.50;99.90;;;;;;5073073;28;20313;-66
2022/02/04 04:18:22;;;;;;;16.70;12.82;;;8.60;99.90;;;;;;5073156;28;20210;-65
2022/02/04 04:20:50;;;;;;;12.20;9.60;;;8.60;99.90;;;;;;5072903;28;20203;-65
2022/02/04 04:23:17;;;;;;;10.48;8.80;;;8.60;99.90;;;;;;5073326;28;20234;-66
2022/02/04 04:25:44;;;;;;;8.90;7.85;;;8.60;99.90;;;;;;5073289;28;20229;-68
2022/02/04 04:28:11;;;;;;;9.05;8.15;;;8.50;99.90;;;;;;5073150;28;20222;-68
2022/02/04 04:30:38;;;;;;;9.00;8.10;;;8.50;99.90;;;;;;5072775;28;20297;-68
2022/02/04 04:33:06;;;;;;;8.70;7.45;;;8.50;99.90;;;;;;5073028;28;20202;-66
2022/02/04 04:35:35;;;;;;;10.70;8.75;;;8.60;99.90;;;;;;5076411;28;20773;-68
2022/02/04 04:38:09;;;;;;;9.77;8.07;;;8.60;99.90;;;;;;5076520;28;20660;-68
2022/02/04 04:40:56;;;;;;;9.60;7.93;;;8.60;99.90;;;;;;5076789;28;20263;-68
2022/02/04 04:43:38;;;;;;;10.05;8.02;;;8.50;99.90;;;;;;5076756;28;20210;-68
2022/02/04 05:27:54;;;;;;;8.60;7.57;;;8.10;99.90;;;;;;5076064;28;20237;-68
2022/02/04 05:30:11;;;;;;;9.52;7.53;;;8.10;99.90;;;;;;5075364;28;20202;-68
2022/02/04 05:32:38;;;;;;;8.30;7.40;;;8.10;99.90;;;;;;5075646;28;20353;-68
2022/02/04 05:35:07;;;;;;;9.63;7.80;;;8.10;99.90;;;;;;5075831;28;20583;-68
2022/02/04 05:37:37;;;;;;;9.68;8.00;;;8.10;99.90;;;;;;5075605;28;20215;-68
2022/02/04 05:40:09;;;;;;;11.48;8.82;;;8.10;99.90;;;;;;5075558;28;20199;-68
2022/02/04 05:42:43;;;;;;;10.70;9.05;;;8.10;99.90;;;;;;5075709;28;20230;-68
2022/02/04 05:45:17;;;;;;;9.48;8.40;;;8.10;99.90;;;;;;5075480;28;20226;-68
2022/02/04 05:47:44;;;;;;;12.52;8.90;;;8.10;99.90;;;;;;5075710;28;20306;-68
2022/02/04 05:50:16;;;;;;;12.50;10.52;;;8.20;99.90;;;;;;5075316;28;20249;-68
2022/02/04 05:53:03;;;;;;;10.85;8.23;;;8.20;99.90;;;;;;5075525;28;20203;-68
2022/02/04 05:55:49;;;;;;;9.45;8.40;;;8.20;99.90;;;;;;5075334;28;20712;-68
2022/02/04 05:58:30;;;;;;;10.63;7.55;;;8.10;99.90;;;;;;5075419;28;20259;-68
2022/02/04 06:01:10;;;;;;;8.93;8.00;;;8.10;99.90;;;;;;5075005;28;20202;-68
2022/02/04 06:03:47;;;;;;;7.95;7.15;;;8.10;99.90;;;;;;5075233;28;20203;-68
2022/02/04 06:09:32;;;;;;;13.77;8.00;;;8.10;99.90;;;;;;5041623;28;20275;-68
2022/02/04 06:12:19;;;;;;;9.48;7.70;;;8.10;99.90;;;;;;5074769;28;20203;-68
2022/02/04 06:14:56;;;;;;;8.27;7.40;;;8.10;99.90;;;;;;5074941;28;20222;-68
2022/02/04 06:22:52;;;;;;;9.73;8.70;;;8.00;99.90;;;;;;5074984;28;20202;-68
2022/02/04 06:25:19;;;;;;;10.60;9.07;;;7.90;99.90;;;;;;5075580;28;20580;-68
2022/02/04 06:27:47;;;;;;;10.38;7.97;;;7.90;99.90;;;;;;5075013;28;20676;-68
2022/02/04 06:30:15;;;;;;;10.45;8.50;;;7.90;99.90;;;;;;5074838;28;20219;-68
2022/02/04 06:32:42;;;;;;;10.00;8.50;;;7.90;99.90;;;;;;5074539;28;20213;-68
2022/02/04 06:35:10;;;;;;;11.60;9.70;;;7.80;99.90;;;;;;5074621;28;20244;-68
2022/02/04 06:37:38;;;;;;;10.00;8.52;;;7.80;99.90;;;;;;5074332;28;20672;-68
2022/02/04 06:40:06;;;;;;;11.13;8.88;;;7.80;99.90;;;;;;5074186;28;20199;-68
2022/02/04 06:42:33;;;;;;;10.50;8.75;;;7.80;99.90;;;;;;5074520;28;20209;-68
2022/02/04 06:45:00;;;;;;;10.23;8.48;;;7.70;99.90;;;;;;5074330;28;20229;-68
2022/02/04 06:47:28;;;;;;;10.77;8.85;;;7.70;99.90;;;;;;5074110;28;20747;-68
2022/02/04 06:49:55;;;;;;;14.13;9.77;;;7.70;99.90;;;;;;5074288;28;20227;-68
2022/02/04 06:52:22;;;;;;;10.45;9.20;;;7.50;99.90;;;;;;5074591;28;20206;-68
2022/02/04 06:54:49;;;;;;;11.75;9.88;;;7.50;99.90;;;;;;5074508;28;20258;-68
2022/02/04 06:57:16;;;;;;;11.50;9.77;;;7.40;99.90;;;;;;5073652;28;20209;-68
2022/02/04 06:59:45;;;;;;;11.25;9.90;;;7.50;99.90;;;;;;5074136;28;20297;-68
2022/02/04 07:02:12;;;;;;;13.07;8.60;;;7.70;99.90;;;;;;5074156;28;20206;-68
2022/02/04 07:04:41;;;;;;;12.60;9.23;;;7.80;99.90;;;;;;5074097;28;20265;-68
2022/02/04 07:07:08;;;;;;;11.40;8.57;;;7.90;99.90;;;;;;5074157;28;20209;-68
2022/02/04 07:09:44;;;;;;;11.05;9.32;;;7.90;99.90;;;;;;5073898;28;20330;-68
2022/02/04 07:12:27;;;;;;;12.60;9.88;;;7.80;99.90;;;;;;5073999;28;20207;-68
2022/02/04 07:17:58;;;;;;;10.95;8.93;;;7.80;99.90;;;;;;5058084;28;20576;-68
2022/02/04 07:20:25;;;;;;;11.13;8.95;;;7.90;99.90;;;;;;5073733;28;20285;-68
2022/02/04 07:22:52;;;;;;;11.90;9.70;;;8.00;99.90;;;;;;5073924;28;20538;-68
2022/02/04 07:25:19;;;;;;;11.50;9.35;;;8.00;99.90;;;;;;5073851;28;20223;-68
2022/02/04 07:27:45;;;;;;;12.40;9.85;;;8.00;99.90;;;;;;5073717;28;20209;-68
2022/02/04 07:30:15;;;;;;;11.50;9.50;;;8.00;99.90;;;;;;5073730;28;20309;-68
2022/02/04 07:32:50;;;;;;;12.10;9.85;;;7.90;99.90;;;;;;5073811;28;20268;-68
2022/02/04 07:35:36;;;;;;;12.60;9.73;;;7.80;99.90;;;;;;5073536;28;20704;-68
2022/02/04 07:40:56;;;;;;;13.65;9.93;;;7.80;99.90;;;;;;5073554;28;20203;-68
2022/02/04 07:43:24;;;;;;;11.45;10.25;;;7.80;99.90;;;;;;5073706;28;20249;-68
2022/02/04 07:45:52;;;;;;;14.98;9.65;;;7.90;99.90;;;;;;5073489;28;20272;-68
2022/02/04 07:48:19;;;;;;;13.65;9.63;;;7.90;99.90;;;;;;5073318;28;20301;-68
2022/02/04 07:50:48;;;;;;;11.20;9.48;;;8.00;99.90;;;;;;5073379;28;20233;-68
2022/02/04 07:53:17;;;;;;;12.05;8.95;;;8.00;99.90;;;;;;5073600;28;20214;-68
2022/02/04 07:55:45;;;;;;;12.40;10.15;;;8.00;99.90;;;;;;5073513;28;20218;-68
2022/02/04 07:58:13;;;;;;;12.52;9.70;;;8.10;99.90;;;;;;5073503;28;20272;-68
2022/02/04 08:00:41;;;;;;;12.15;9.75;;;8.00;99.90;;;;;;5073116;28;20207;-68
2022/02/04 08:03:25;;;;;;;11.95;9.10;;;8.00;99.90;;;;;;5073392;28;20229;-68
2022/02/04 08:05:56;;;;;;;11.07;8.45;;;8.00;99.90;;;;;;5073291;28;20231;-68
2022/02/04 08:08:31;;;;;;;11.55;9.55;;;7.90;99.90;;;;;;5073268;28;20289;-68
2022/02/04 08:11:14;;;;;;;11.90;10.00;;;7.90;99.90;;;;;;5077099;28;20205;-68
2022/02/04 08:25:34;;;;;;;12.77;9.52;;;7.70;99.90;;;;;;5077099;28;20297;-68
2022/02/04 08:47:19;;;;;;;14.05;10.45;;;7.40;99.90;;;;;;5076734;28;20225;-69
2022/02/04 08:50:16;;;;;;;13.48;10.52;;;7.40;99.90;;;;;;5076709;28;20318;-67
2022/02/04 08:52:56;;;;;;;11.80;9.93;;;7.40;99.90;;;;;;5076682;28;20286;-68
2022/02/04 08:55:27;;;;;;;11.63;9.90;;;7.40;99.90;;;;;;5076380;28;20226;-68
2022/02/04 08:58:05;;;;;;;12.20;9.70;;;7.40;99.90;;;;;;5076521;28;20239;-68
2022/02/04 09:00:41;;;;;;;13.30;9.70;;;7.40;99.90;;;;;;5076300;28;20205;-68
2022/02/04 09:03:15;;;;;;;10.25;7.93;;;7.30;99.90;;;;;;5076327;28;20202;-68
2022/02/04 09:05:44;;;;;;;10.63;8.23;;;7.40;99.90;;;;;;5076439;28;20226;-68
2022/02/04 09:08:21;;;;;;;10.95;9.20;;;7.40;99.90;;;;;;5076678;28;20623;-66
2022/02/04 09:10:49;;;;;;;12.38;8.93;;;7.40;99.90;;;;;;5076206;28;20230;-65
2022/02/04 09:18:52;;;;;;;9.77;8.65;;;7.70;99.90;;;;;;5076423;28;20694;-67
2022/02/04 09:24:06;;;;;;;11.73;7.88;;;8.00;99.90;;;;;;5076083;28;20320;-68
2022/02/04 09:26:33;;;;;;;10.60;9.07;;;8.20;99.90;;;;;;5076165;28;20401;-68
2022/02/04 09:29:01;;;;;;;9.07;7.82;;;8.50;99.90;;;;;;5075967;28;20310;-68
2022/02/04 09:31:28;;;;;;;8.55;7.28;;;8.60;99.90;;;;;;5075978;28;20209;-68
2022/02/04 09:33:55;;;;;;;8.93;7.90;;;8.70;99.90;;;;;;5075507;28;20201;-68
2022/02/04 09:36:21;;;;;;;8.68;6.75;;;8.80;99.90;;;;;;5075943;28;20199;-68
2022/02/04 09:38:48;;;;;;;7.05;6.28;;;8.80;99.90;;;;;;5075886;28;20209;-68
2022/02/04 09:41:20;;;;;;;7.38;6.43;;;8.90;99.90;;;;;;5075755;28;20210;-68
2022/02/04 09:43:46;;;;;;;7.32;5.75;;;8.90;99.90;;;;;;5075877;28;20194;-69
2022/02/04 09:46:15;;;;;;;5.97;5.20;;;8.90;99.90;;;;;;5075745;28;20218;-69
2022/02/04 09:48:45;;;;;;;6.20;5.35;;;8.80;99.90;;;;;;5075379;28;20254;-69
2022/02/04 09:51:15;;;;;;;5.57;4.53;;;8.90;99.90;;;;;;5075391;28;20276;-68
2022/02/04 10:07:53;;;;;;;5.50;4.00;;;8.90;99.90;;;;;;5069693;28;20191;-68
2022/02/04 10:16:24;;;;;;;5.80;5.18;;;9.10;99.90;;;;;;5075269;28;20210;-68
2022/02/04 10:19:12;;;;;;;5.85;5.10;;;9.00;99.90;;;;;;5075303;28;20210;-69
2022/02/04 10:21:40;;;;;;;6.72;5.35;;;9.00;99.90;;;;;;5075051;28;20595;-68
2022/02/04 10:24:10;;;;;;;6.05;5.45;;;9.20;99.90;;;;;;5075015;28;20202;-68
2022/02/04 10:26:37;;;;;;;5.15;4.03;;;9.40;99.90;;;;;;5074914;28;20206;-68
2022/02/04 10:29:04;;;;;;;3.28;2.97;;;9.30;99.90;;;;;;5075004;28;20203;-68
2022/02/04 10:31:31;;;;;;;3.45;3.15;;;9.40;99.90;;;;;;5074173;28;20293;-68
2022/02/04 10:34:04;;;;;;;3.92;3.55;;;9.20;99.90;;;;;;5075090;28;20687;-68
2022/02/04 10:36:36;;;;;;;3.97;3.58;;;9.10;99.90;;;;;;5075236;28;20289;-68
2022/02/04 10:39:27;;;;;;;3.90;3.60;;;9.10;99.90;;;;;;5076002;28;20560;-68
2022/02/04 10:42:15;;;;;;;4.00;3.60;;;9.20;99.90;;;;;;5074986;28;20203;-68
2022/02/04 10:44:55;;;;;;;3.75;3.45;;;9.20;99.90;;;;;;5074740;28;20751;-66
2022/02/04 10:47:51;;;;;;;4.97;3.42;;;9.30;99.90;;;;;;5074456;28;20214;-66
2022/02/04 10:53:44;;;;;;;4.10;3.10;;;9.40;99.90;;;;;;5074299;28;20206;-65
2022/02/04 10:56:30;;;;;;;3.72;3.42;;;9.50;99.90;;;;;;5074312;28;20281;-66
2022/02/04 10:59:25;;;;;;;3.50;3.20;;;9.60;99.90;;;;;;5074141;28;20206;-66
2022/02/04 11:02:19;;;;;;;3.08;2.65;;;9.70;99.90;;;;;;5073843;28;20194;-66
2022/02/04 11:05:01;;;;;;;2.50;2.25;;;9.50;99.90;;;;;;5074112;28;20231;-68
2022/02/04 11:08:03;;;;;;;3.58;2.10;;;9.50;99.90;;;;;;5074165;28;20223;-68
2022/02/04 11:10:45;;;;;;;2.20;2.00;;;9.40;99.90;;;;;;5073473;28;20651;-68
2022/02/04 11:35:29;;;;;;;2.67;2.42;;;9.30;99.90;;;;;;5047816;28;20211;-68
2022/02/04 11:43:57;;;;;;;2.60;2.35;;;9.40;99.90;;;;;;5074023;28;20244;-68
2022/02/04 11:52:35;;;;;;;4.65;2.67;;;9.40;99.90;;;;;;5074823;28;20194;-69
2022/02/04 11:55:22;;;;;;;2.90;1.98;;;9.30;99.90;;;;;;5074507;28;20256;-69
2022/02/04 11:57:56;;;;;;;2.50;2.30;;;9.40;99.90;;;;;;5074078;28;20207;-69
2022/02/04 12:00:27;;;;;;;2.83;2.55;;;9.40;99.90;;;;;;5074182;28;20248;-68
2022/02/04 12:02:55;;;;;;;2.53;2.33;;;9.50;99.90;;;;;;5074181;28;20206;-68
2022/02/04 12:05:32;;;;;;;2.08;1.98;;;9.50;99.90;;;;;;5074113;28;20229;-66
2022/02/04 12:08:18;;;;;;;2.28;1.77;;;9.60;99.90;;;;;;5073882;28;20213;-66
2022/02/04 12:10:47;;;;;;;2.30;2.10;;;9.60;99.90;;;;;;5072882;28;20230;-65
2022/02/04 12:13:17;;;;;;;2.33;2.13;;;9.60;99.90;;;;;;5073619;28;20680;-65
2022/02/04 12:15:47;;;;;;;1.80;1.70;;;9.60;99.90;;;;;;5073012;28;20705;-66
2022/02/04 12:18:16;;;;;;;1.80;1.70;;;9.60;99.90;;;;;;5073415;28;20233;-66
2022/02/04 12:20:58;;;;;;;1.40;1.30;;;9.50;99.90;;;;;;5072932;28;20627;-68
2022/02/04 12:23:49;;;;;;;1.60;1.50;;;9.50;99.90;;;;;;5073191;28;20722;-68
2022/02/04 12:26:22;;;;;;;1.20;1.20;;;9.40;99.90;;;;;;5072987;28;20268;-66
2022/02/04 12:28:52;;;;;;;1.65;1.55;;;9.30;99.90;;;;;;5056825;28;20295;-66
2022/02/04 12:31:24;;;;;;;2.20;1.60;;;9.30;99.90;;;;;;5072316;28;20230;-68
2022/02/04 12:33:55;;;;;;;3.22;1.50;;;9.30;99.90;;;;;;5072177;28;20657;-69
2022/02/04 12:36:25;;;;;;;2.05;1.73;;;9.40;99.90;;;;;;5072054;28;20191;-68
2022/02/04 12:38:53;;;;;;;1.60;1.50;;;9.40;99.90;;;;;;5071563;28;20211;-69
2022/02/04 12:41:22;;;;;;;3.28;3.00;;;9.50;99.90;;;;;;5071641;28;20213;-69
2022/02/04 12:43:53;;;;;;;1.60;1.50;;;9.50;99.90;;;;;;5071544;28;20554;-68
2022/02/04 12:46:21;;;;;;;1.70;1.60;;;9.50;99.90;;;;;;5071755;28;20226;-68
2022/02/04 12:48:58;;;;;;;2.05;1.95;;;9.40;99.90;;;;;;5071434;28;20213;-69
2022/02/04 12:51:52;;;;;;;1.80;1.70;;;9.40;99.90;;;;;;5071941;28;20222;-67
2022/02/04 12:54:40;;;;;;;1.70;1.60;;;9.30;99.90;;;;;;5072398;28;20310;-67
2022/02/04 12:57:32;;;;;;;1.67;1.55;;;9.30;99.90;;;;;;5075345;28;20203;-67
2022/02/04 13:00:05;;;;;;;2.22;1.73;;;9.30;99.90;;;;;;5075218;28;20298;-67
2022/02/04 13:02:53;;;;;;;1.80;1.70;;;9.30;99.90;;;;;;5075216;28;20203;-68
2022/02/04 13:08:17;;;;;;;1.95;1.73;;;9.30;99.90;;;;;;5075166;28;20202;-67
2022/02/04 13:10:44;;;;;;;1.83;1.73;;;9.30;99.90;;;;;;5074423;28;20222;-67
2022/02/04 13:13:14;;;;;;;1.65;1.55;;;9.40;99.90;;;;;;5074907;28;20569;-67
2022/02/04 13:15:44;;;;;;;1.58;1.42;;;9.40;99.90;;;;;;5075011;28;20254;-67
2022/02/04 13:18:13;;;;;;;1.88;1.77;;;9.40;99.90;;;;;;5075037;28;20203;-67
2022/02/04 13:20:41;;;;;;;1.73;1.63;;;9.40;99.90;;;;;;5074465;28;20679;-67
2022/02/04 13:23:10;;;;;;;4.30;2.30;;;9.40;99.90;;;;;;5074374;28;20205;-67
2022/02/04 13:25:42;;;;;;;4.25;1.95;;;9.40;99.90;;;;;;5074896;28;20222;-68
2022/02/04 13:28:12;;;;;;;1.80;1.70;;;9.40;99.90;;;;;;5074949;28;20199;-68
2022/02/04 13:30:48;;;;;;;1.85;1.75;;;9.40;99.90;;;;;;5074338;28;20222;-67
2022/02/04 13:33:17;;;;;;;2.20;2.10;;;9.30;99.90;;;;;;5074364;28;20641;-68
2022/02/04 13:35:52;;;;;;;2.00;1.80;;;9.30;99.90;;;;;;5074451;28;20718;-68
2022/02/04 13:38:26;;;;;;;2.70;1.90;;;9.30;99.90;;;;;;5074816;28;20206;-68
2022/02/04 13:41:05;;;;;;;3.90;1.98;;;9.40;99.90;;;;;;5074158;28;20298;-68
2022/02/04 13:43:42;;;;;;;2.25;2.00;;;9.40;99.90;;;;;;5074606;28;20184;-67
2022/02/04 13:46:19;;;;;;;2.03;1.83;;;9.40;99.90;;;;;;5073893;28;20244;-67
2022/02/04 13:49:00;;;;;;;3.45;1.70;;;9.60;99.90;;;;;;5073986;28;20207;-68
2022/02/04 13:51:49;;;;;;;3.20;2.25;;;9.50;99.90;;;;;;5074407;28;20313;-67
2022/02/04 13:54:26;;;;;;;5.20;4.22;;;9.50;99.90;;;;;;5073973;28;20237;-68
2022/02/04 13:57:15;;;;;;;2.53;2.10;;;9.50;99.90;;;;;;5074528;28;20210;-67
2022/02/04 13:59:48;;;;;;;1.90;1.80;;;9.40;99.90;;;;;;5074250;28;20555;-68
2022/02/04 14:02:20;;;;;;;1.92;1.83;;;9.40;99.90;;;;;;5074378;28;20258;-68
2022/02/04 14:04:56;;;;;;;1.88;1.77;;;9.40;99.90;;;;;;5073923;28;20591;-68
2022/02/04 14:07:34;;;;;;;1.75;1.65;;;9.40;99.90;;;;;;5074002;28;20228;-68
2022/02/04 14:10:08;;;;;;;1.98;1.88;;;9.30;99.90;;;;;;5076655;28;20222;-68
2022/02/04 14:12:35;;;;;;;7.13;5.15;;;9.30;99.90;;;;;;5077935;28;20202;-68
2022/02/04 14:15:02;;;;;;;1.80;1.70;;;9.40;99.90;;;;;;5073386;28;20227;-68
2022/02/04 14:17:31;;;;;;;2.30;2.10;;;9.40;99.90;;;;;;5073743;28;20298;-68
2022/02/04 14:19:58;;;;;;;2.60;1.90;;;9.30;99.90;;;;;;5074082;28;20575;-67
2022/02/04 14:22:25;;;;;;;7.32;5.38;;;9.30;99.90;;;;;;5073624;28;20199;-67
2022/02/04 14:24:52;;;;;;;3.35;3.00;;;9.40;99.90;;;;;;5073886;28;20314;-68
2022/02/04 14:27:19;;;;;;;1.83;1.73;;;9.40;99.90;;;;;;5073918;28;20203;-69
2022/02/04 14:29:56;;;;;;;1.80;1.70;;;9.40;99.90;;;;;;5073673;28;20462;-69
2022/02/04 14:32:26;;;;;;;7.50;5.15;;;9.40;99.90;;;;;;5073622;28;20256;-69
2022/02/04 14:35:11;;;;;;;1.88;1.77;;;9.40;99.90;;;;;;5073474;28;20711;-69
2022/02/04 14:49:15;;;;;;;1.70;1.60;;;9.40;99.90;;;;;;5073569;28;20552;-69
2022/02/04 14:51:59;;;;;;;2.20;2.00;;;9.30;99.90;;;;;;5073028;28;20229;-68
2022/02/04 14:54:44;;;;;;;2.10;2.00;;;9.30;99.90;;;;;;5073013;28;20292;-68
2022/02/04 15:00:18;;;;;;;1.40;1.30;;;9.30;99.90;;;;;;5073098;28;20683;-68
2022/02/04 15:02:47;;;;;;;1.50;1.40;;;9.20;99.90;;;;;;5072994;28;20242;-68
2022/02/04 15:05:18;;;;;;;1.95;1.75;;;9.20;99.90;;;;;;5073295;28;20262;-68
2022/02/04 15:07:48;;;;;;;1.33;1.20;;;9.20;99.90;;;;;;5073283;28;20256;-67
2022/02/04 15:10:26;;;;;;;1.70;1.60;;;9.20;99.90;;;;;;5072996;28;20191;-67
2022/02/04 15:12:54;;;;;;;1.40;1.30;;;9.20;99.90;;;;;;5072736;28;20607;-68
2022/02/04 15:15:21;;;;;;;1.98;1.50;;;9.20;99.90;;;;;;5072778;28;20223;-67
2022/02/04 15:17:48;;;;;;;1.50;1.40;;;9.20;99.90;;;;;;5072628;28;20294;-66
2022/02/04 15:20:15;;;;;;;1.48;1.33;;;9.20;99.90;;;;;;5072843;28;20576;-66
2022/02/04 15:22:42;;;;;;;1.20;1.20;;;9.20;99.90;;;;;;5072475;28;20732;-67
2022/02/04 15:25:17;;;;;;;1.60;1.50;;;9.20;99.90;;;;;;5072792;28;20254;-67
2022/02/04 15:27:53;;;;;;;1.35;1.13;;;9.20;99.90;;;;;;5074311;28;20198;-66
2022/02/04 15:30:25;;;;;;;1.00;1.00;;;9.20;99.90;;;;;;5072934;28;20541;-67
2022/02/04 15:32:52;;;;;;;0.90;0.90;;;9.10;99.90;;;;;;5072939;28;20261;-67
2022/02/04 15:35:19;;;;;;;1.40;1.30;;;9.10;99.90;;;;;;5073873;28;20218;-67
2022/02/04 15:37:45;;;;;;;1.30;1.05;;;9.20;99.90;;;;;;5074762;28;20289;-67
2022/02/04 15:40:14;;;;;;;1.13;1.13;;;9.20;99.90;;;;;;5073156;28;20203;-68
2022/02/04 15:42:44;;;;;;;1.70;1.30;;;9.20;99.90;;;;;;5073836;28;20199;-68
2022/02/04 15:45:28;;;;;;;0.80;0.80;;;9.10;99.90;;;;;;5073528;28;20222;-67
2022/02/04 15:48:01;;;;;;;1.30;1.17;;;9.20;99.90;;;;;;5073417;28;20264;-68
2022/02/04 15:50:36;;;;;;;1.05;1.05;;;9.10;99.90;;;;;;5073516;28;20187;-67
2022/02/04 15:53:25;;;;;;;1.27;1.10;;;9.10;99.90;;;;;;5073528;28;20281;-67
2022/02/04 15:56:14;;;;;;;1.00;0.80;;;9.10;99.90;;;;;;5073359;28;20700;-69
2022/02/04 15:59:01;;;;;;;1.20;1.10;;;9.10;99.90;;;;;;5073490;28;20209;-68
2022/02/04 16:01:46;;;;;;;0.95;0.90;;;9.00;99.90;;;;;;5073339;28;20202;-68
2022/02/04 16:04:21;;;;;;;0.90;0.90;;;9.00;99.90;;;;;;5073387;28;20187;-68
2022/02/04 16:06:49;;;;;;;1.00;1.00;;;9.10;99.90;;;;;;5073536;28;20613;-68
2022/02/04 16:09:19;;;;;;;1.48;1.38;;;9.20;99.90;;;;;;5073562;28;20202;-68
2022/02/04 16:11:55;;;;;;;1.20;1.10;;;9.20;99.90;;;;;;5073289;28;20295;-68
2022/02/04 16:14:26;;;;;;;1.25;1.15;;;9.20;99.90;;;;;;5073448;28;20257;-68
2022/02/04 16:16:57;;;;;;;4.50;3.63;;;9.20;99.90;;;;;;5073529;28;20206;-68
2022/02/04 16:19:36;;;;;;;1.30;1.20;;;9.20;99.90;;;;;;5073239;28;20216;-68
2022/02/04 16:22:28;;;;;;;1.52;1.42;;;9.10;99.90;;;;;;5073185;28;20203;-68
2022/02/04 16:30:24;;;;;;;1.70;1.60;;;9.00;99.90;;;;;;5074751;28;20676;-68
2022/02/04 16:32:51;;;;;;;1.60;1.50;;;8.90;99.90;;;;;;5077052;28;20600;-68
2022/02/04 16:35:18;;;;;;;1.83;1.55;;;8.90;99.90;;;;;;5076700;28;20222;-68
2022/02/04 16:37:50;;;;;;;1.50;1.40;;;8.90;99.90;;;;;;5077090;28;20305;-68
2022/02/04 16:40:19;;;;;;;1.40;1.05;;;8.90;99.90;;;;;;5076562;28;20734;-68
2022/02/04 16:42:48;;;;;;;1.75;1.65;;;8.80;99.90;;;;;;5076990;28;20199;-68
2022/02/04 16:45:15;;;;;;;1.45;1.35;;;8.80;99.90;;;;;;5076740;28;20222;-68
2022/02/04 16:47:41;;;;;;;2.65;1.38;;;8.80;99.90;;;;;;5076706;28;20206;-68
2022/02/04 16:50:09;;;;;;;1.60;1.13;;;8.70;99.90;;;;;;5076650;28;20297;-68
2022/02/04 16:52:36;;;;;;;1.30;1.20;;;8.70;99.90;;;;;;5076621;28;20306;-68
2022/02/04 16:55:04;;;;;;;1.65;1.55;;;8.70;99.90;;;;;;5076601;28;20309;-68
2022/02/04 16:57:31;;;;;;;1.08;1.02;;;8.60;99.90;;;;;;5076743;28;20206;-68
2022/02/04 17:00:08;;;;;;;1.13;1.13;;;8.70;99.90;;;;;;5076299;28;20270;-68
2022/02/04 17:02:36;;;;;;;1.10;1.10;;;8.60;99.90;;;;;;5076425;28;20213;-68
2022/02/04 17:05:03;;;;;;;1.35;0.90;;;8.70;99.90;;;;;;5076550;28;20222;-68
2022/02/04 17:07:34;;;;;;;1.05;1.00;;;8.70;99.90;;;;;;5076435;28;20252;-68
2022/02/04 17:10:02;;;;;;;1.17;1.08;;;8.70;99.90;;;;;;5076494;28;20545;-68
2022/02/04 17:12:40;;;;;;;1.15;1.05;;;8.70;99.90;;;;;;5076279;28;20558;-68
2022/02/04 17:15:09;;;;;;;2.55;1.10;;;8.70;99.90;;;;;;5076421;28;20233;-68
2022/02/04 17:17:36;;;;;;;1.20;1.10;;;8.70;99.90;;;;;;5076349;28;20202;-68
2022/02/04 17:20:08;;;;;;;1.23;1.20;;;8.70;99.90;;;;;;5076051;28;20203;-68
2022/02/04 17:22:36;;;;;;;1.17;1.05;;;8.70;99.90;;;;;;5076254;28;20752;-68
2022/02/04 17:25:08;;;;;;;1.33;1.23;;;8.70;99.90;;;;;;5075796;28;20230;-68
2022/02/04 17:27:35;;;;;;;1.48;1.25;;;8.70;99.90;;;;;;5076224;28;20240;-68
2022/02/04 17:30:03;;;;;;;1.88;1.33;;;8.70;99.90;;;;;;5075926;28;20203;-68
2022/02/04 17:32:31;;;;;;;1.60;1.50;;;8.70;99.90;;;;;;5075975;28;20223;-68